Aérodrome :
LOGIN :

S'inscrire | Disclaimer

   EN    FR    IT 

 










Légende :    VFR   VFR Marginal   IFR   IFR Intensif   IFR Très Intensif
Visi : 
Plafond : 
>= 8 km
>= 3000ft
5 à 8 km
1000 à 3000 ft
1500m à 5 km
500 à 1000 ft
800 à 1500m
200 à 500 ft
< 800m
< 200 ft
Symboles :   Orages  Brouillard  Fortes neiges  Fortes précipitations  Vent > 20 kt
SIGMETs :   Divers  Orages  Givrage  Turbulence  Onde Orograph.  Cendres Volcan.






- Altitude de l'aérodrome : 289 ft


LFYR - Romorantin Pruniers

DERNIER METAR :
  • 150200Z AUTO 21013KT 190V250 9999 FEW013/// SCT056/// OVC070/// ///TCU 11/10 Q1003

METARs EXPIRÉS :
  • 150130Z AUTO 23011KT 190V260 9999 -RADZ FEW025 BKN041 BKN050 11/10 Q1003
  • 150100Z AUTO 24012KT 210V270 4900 -RA BR BKN008/// BKN036/// OVC054/// ///TCU 11/10 Q1003
  • 150030Z AUTO 25009KT 230V320 6000 -RA FEW007/// BKN012/// OVC022/// ///TCU 11/11 Q1003
  • 150000Z AUTO 23006KT 200V270 7000 -RADZ SCT008 OVC013 11/10 Q1003
  • 142330Z AUTO 22007KT 5000 DZ BR BKN007 BKN014 OVC023 10/10 Q1003

Prévision TAF périmée.



MET'MAP, la Météo Aéronautique d'un coup d'oeil ! - Copyright ORBIFLY Décembre 2007 - Disclaimer

ORBIFLY MET'MAP TEAM :

Programmation & Développement : Alexandra Zaïnal
Sur une idée originale de : Baudouin d'Aumeries
Assistance à la programmation : Marc-Olivier Méhu
Soutien technique & logistique : Manuel Goepfert

Contact : metmap@orbifly.com




SOURCES & CREDITS :

   NOAA